createdAt,value
2022-12-03T00:00:23.054Z,8.77
2022-12-03T00:02:51.109Z,9.15
2022-12-03T00:05:19.297Z,8.68
2022-12-03T00:07:48.718Z,8.93
2022-12-03T00:10:16.737Z,10.38
2022-12-03T00:12:45.932Z,8.30
2022-12-03T00:15:14.354Z,8.93
2022-12-03T00:17:42.322Z,11.38
2022-12-03T00:20:12.709Z,9.20
2022-12-03T00:22:40.794Z,10.50
2022-12-03T00:25:10.898Z,10.05
2022-12-03T00:27:38.900Z,11.20
2022-12-03T00:30:08.340Z,11.75
2022-12-03T00:32:36.297Z,10.68
2022-12-03T00:35:04.493Z,10.95
2022-12-03T00:37:32.566Z,11.15
2022-12-03T00:40:00.501Z,11.40
2022-12-03T00:42:30.569Z,13.05
2022-12-03T00:44:58.484Z,11.90
2022-12-03T00:47:26.442Z,12.95
2022-12-03T00:49:54.381Z,12.07
2022-12-03T00:52:22.410Z,11.63
2022-12-03T00:54:50.605Z,12.88
2022-12-03T00:57:18.615Z,12.13
2022-12-03T00:59:47.946Z,13.27
2022-12-03T01:02:16.041Z,12.15
2022-12-03T01:04:44.215Z,13.00
2022-12-03T01:07:12.210Z,14.65
2022-12-03T01:09:40.180Z,14.15
2022-12-03T01:12:08.191Z,14.90
2022-12-03T01:14:36.284Z,14.57
2022-12-03T01:17:06.799Z,14.88
2022-12-03T01:19:36.222Z,17.35
2022-12-03T01:22:04.186Z,17.40
2022-12-03T01:24:32.195Z,17.40
2022-12-03T01:27:00.858Z,17.50
2022-12-03T01:29:29.088Z,19.80
2022-12-03T01:32:14.576Z,17.75
2022-12-03T01:34:44.059Z,21.77
2022-12-03T01:37:12.040Z,20.30
2022-12-03T01:39:39.997Z,19.80
2022-12-03T01:42:09.372Z,20.42
2022-12-03T01:44:40.388Z,20.52
2022-12-03T01:47:14.076Z,19.67
2022-12-03T01:49:47.617Z,22.40
2022-12-03T01:52:18.878Z,20.38
2022-12-03T01:54:50.627Z,21.63
2022-12-03T01:57:22.663Z,24.52
2022-12-03T01:59:51.639Z,21.95
2022-12-03T02:02:23.077Z,19.83
2022-12-03T02:04:54.333Z,22.10
2022-12-03T02:07:26.613Z,21.92
2022-12-03T02:09:56.575Z,21.23
2022-12-03T02:12:29.411Z,20.65
2022-12-03T02:14:57.779Z,24.00
2022-12-03T02:17:25.840Z,21.33
2022-12-03T02:19:55.995Z,20.75
2022-12-03T02:22:39.078Z,22.38
2022-12-03T02:25:12.528Z,21.08
2022-12-03T02:27:40.986Z,22.35
2022-12-03T02:30:10.801Z,21.70
2022-12-03T02:32:39.257Z,20.23
2022-12-03T02:35:13.430Z,20.40
2022-12-03T02:37:42.296Z,20.85
2022-12-03T02:40:15.654Z,20.30
2022-12-03T02:42:45.268Z,21.17
2022-12-03T02:45:16.631Z,20.42
2022-12-03T02:47:46.992Z,19.77
2022-12-03T02:50:17.978Z,19.17
2022-12-03T02:52:47.337Z,20.00
2022-12-03T02:55:18.767Z,19.95
2022-12-03T02:57:48.706Z,19.83
2022-12-03T03:00:19.452Z,22.80
2022-12-03T03:02:48.354Z,21.08
2022-12-03T03:05:17.859Z,20.85
2022-12-03T03:07:46.102Z,20.40
2022-12-03T03:10:18.528Z,21.52
2022-12-03T03:12:46.932Z,20.48
2022-12-03T03:15:15.350Z,21.60
2022-12-03T03:17:44.161Z,22.02
2022-12-03T03:20:13.325Z,20.85
2022-12-03T03:22:43.188Z,20.98
2022-12-03T03:25:15.315Z,20.45
2022-12-03T03:27:45.474Z,19.45
2022-12-03T03:30:14.486Z,20.40
2022-12-03T03:32:43.638Z,20.35
2022-12-03T03:35:14.053Z,21.65
2022-12-03T03:37:43.073Z,19.80
2022-12-03T03:40:11.913Z,19.55
2022-12-03T03:42:40.462Z,18.58
2022-12-03T03:45:11.101Z,20.45
2022-12-03T03:47:39.170Z,20.30
2022-12-03T03:50:09.066Z,20.02
2022-12-03T03:52:38.209Z,18.13
2022-12-03T03:55:07.665Z,19.35
2022-12-03T03:57:35.950Z,21.17
2022-12-03T04:00:06.412Z,19.77
2022-12-03T04:02:37.389Z,18.80
2022-12-03T04:05:07.418Z,19.88
2022-12-03T04:07:35.450Z,18.52
2022-12-03T04:10:23.676Z,21.50
2022-12-03T04:12:56.797Z,19.75
2022-12-03T04:15:25.210Z,19.48
2022-12-03T04:18:08.609Z,20.60
2022-12-03T04:20:36.621Z,19.30
2022-12-03T04:23:03.808Z,20.98
2022-12-03T04:25:49.613Z,19.92
2022-12-03T04:28:35.007Z,20.38
2022-12-03T04:31:23.653Z,20.02
2022-12-03T04:34:10.818Z,14.82
2022-12-03T04:36:39.022Z,20.38
2022-12-03T04:39:07.118Z,21.30
2022-12-03T04:41:35.158Z,19.10
2022-12-03T04:44:20.585Z,19.20
2022-12-03T04:46:48.563Z,20.77
2022-12-03T04:49:18.005Z,19.30
2022-12-03T04:51:46.016Z,20.77
2022-12-03T04:54:14.023Z,20.13
2022-12-03T04:56:41.983Z,18.55
2022-12-03T04:59:14.330Z,21.88
2022-12-03T05:01:44.450Z,21.92
2022-12-03T05:04:12.972Z,20.35
2022-12-03T05:06:42.709Z,20.00
2022-12-03T05:09:11.589Z,24.35
2022-12-03T05:11:40.085Z,20.38
2022-12-03T05:14:08.610Z,19.70
2022-12-03T05:16:36.754Z,20.65
2022-12-03T05:19:05.678Z,20.42
2022-12-03T05:21:32.765Z,20.80
2022-12-03T05:24:02.344Z,19.38
2022-12-03T05:26:30.493Z,18.77
2022-12-03T05:28:58.551Z,21.75
2022-12-03T05:31:26.697Z,26.63
2022-12-03T05:33:55.186Z,28.02
2022-12-03T05:36:25.299Z,36.85
2022-12-03T05:38:53.414Z,42.65
2022-12-03T05:41:40.270Z,40.83
2022-12-03T05:44:08.394Z,29.73
2022-12-03T05:46:36.571Z,24.30
2022-12-03T05:49:04.720Z,23.27
2022-12-03T05:51:32.730Z,23.75
2022-12-03T05:54:00.712Z,22.60
2022-12-03T05:56:30.050Z,20.42
2022-12-03T05:58:58.065Z,22.13
2022-12-03T06:01:26.060Z,22.80
2022-12-03T06:03:54.105Z,20.23
2022-12-03T06:06:22.163Z,20.75
2022-12-03T06:08:50.167Z,20.70
2022-12-03T06:11:18.275Z,19.58
2022-12-03T06:13:47.645Z,22.45
2022-12-03T06:16:15.699Z,20.77
2022-12-03T06:18:43.734Z,20.45
2022-12-03T06:21:11.692Z,20.95
2022-12-03T06:23:44.519Z,21.75
2022-12-03T06:26:13.029Z,21.17
2022-12-03T06:28:45.610Z,21.95
2022-12-03T06:31:15.245Z,22.00
2022-12-03T06:33:43.237Z,23.70
2022-12-03T06:36:11.271Z,23.30
2022-12-03T06:38:39.271Z,26.15
2022-12-03T06:41:07.259Z,22.98
2022-12-03T06:43:35.301Z,20.73
2022-12-03T06:46:03.377Z,21.98
2022-12-03T06:48:32.766Z,19.80
2022-12-03T06:51:00.796Z,20.73
2022-12-03T06:53:28.775Z,21.58
2022-12-03T06:55:56.723Z,22.10
2022-12-03T06:58:24.697Z,20.73
2022-12-03T07:00:52.648Z,22.10
2022-12-03T07:03:21.194Z,21.77
2022-12-03T07:05:50.518Z,21.08
2022-12-03T07:08:18.565Z,19.75
2022-12-03T07:10:46.577Z,21.42
2022-12-03T07:13:14.510Z,21.77
2022-12-03T07:15:42.677Z,23.13
2022-12-03T07:18:10.971Z,23.30
2022-12-03T07:20:38.944Z,21.88
2022-12-03T07:23:08.215Z,24.63
2022-12-03T07:25:36.276Z,24.75
2022-12-03T07:28:04.512Z,29.13
2022-12-03T07:30:32.447Z,24.00
2022-12-03T07:33:00.395Z,24.50
2022-12-03T07:35:28.343Z,28.17
2022-12-03T07:37:56.284Z,26.30
2022-12-03T07:40:25.560Z,24.23
2022-12-03T07:42:53.492Z,26.52
2022-12-03T07:45:21.457Z,23.13
2022-12-03T07:47:49.384Z,26.00
2022-12-03T07:50:17.621Z,25.00
2022-12-03T07:52:45.594Z,28.45
2022-12-03T07:55:13.711Z,24.45
2022-12-03T07:57:42.975Z,30.88
2022-12-03T08:00:12.758Z,26.63
2022-12-03T08:02:40.707Z,26.40
2022-12-03T08:05:09.115Z,28.55
2022-12-03T08:07:37.156Z,30.67
2022-12-03T08:10:06.663Z,26.98
2022-12-03T08:12:40.938Z,24.27
2022-12-03T08:15:16.377Z,24.38
2022-12-03T08:17:45.819Z,27.67
2022-12-03T08:20:18.384Z,35.65
2022-12-03T08:22:48.913Z,37.60
2022-12-03T08:25:22.799Z,31.27
2022-12-03T08:27:51.746Z,28.60
2022-12-03T08:30:21.844Z,26.02
2022-12-03T08:32:50.418Z,28.65
2022-12-03T08:35:24.156Z,35.78
2022-12-03T08:38:00.838Z,39.30
2022-12-03T08:40:35.709Z,60.47
2022-12-03T08:43:10.375Z,40.00
2022-12-03T08:45:42.760Z,49.42
2022-12-03T08:48:27.977Z,40.25
2022-12-03T08:50:57.837Z,111.25
2022-12-03T08:53:30.221Z,101.28
2022-12-03T08:56:00.066Z,34.85
2022-12-03T08:58:35.042Z,29.65
2022-12-03T09:01:25.456Z,25.48
2022-12-03T09:03:55.612Z,22.38
2022-12-03T09:06:24.031Z,25.05
2022-12-03T09:08:51.989Z,26.85
2022-12-03T09:11:19.915Z,25.30
2022-12-03T09:13:47.840Z,20.52
2022-12-03T09:16:17.224Z,26.25
2022-12-03T09:18:45.242Z,26.10
2022-12-03T09:21:13.199Z,25.25
2022-12-03T09:23:41.166Z,28.77
2022-12-03T09:26:09.117Z,28.50
2022-12-03T09:28:37.057Z,24.08
2022-12-03T09:31:05.122Z,26.48
2022-12-03T09:33:34.415Z,31.33
2022-12-03T09:36:02.372Z,26.15
2022-12-03T09:38:30.306Z,27.83
2022-12-03T09:40:58.274Z,36.15
2022-12-03T09:43:49.344Z,31.23
2022-12-03T09:46:15.840Z,28.13
2022-12-03T09:48:45.316Z,27.10
2022-12-03T09:51:13.978Z,27.50
2022-12-03T09:53:42.455Z,27.45
2022-12-03T09:56:16.140Z,24.85
2022-12-03T09:58:44.275Z,27.98
2022-12-03T10:01:15.445Z,27.17
2022-12-03T10:03:47.851Z,22.92
2022-12-03T10:06:19.771Z,27.02
2022-12-03T10:08:50.188Z,26.95
2022-12-03T10:11:20.167Z,29.20
2022-12-03T10:13:48.959Z,22.95
2022-12-03T10:16:19.083Z,22.30
2022-12-03T10:18:52.234Z,21.17
2022-12-03T10:21:24.658Z,23.20
2022-12-03T10:24:20.279Z,28.60
2022-12-03T10:26:51.851Z,19.38
2022-12-03T10:29:21.767Z,20.40
2022-12-03T10:31:56.773Z,19.65
2022-12-03T10:34:31.605Z,21.75
2022-12-03T10:37:20.378Z,21.17
2022-12-03T10:39:56.939Z,20.73
2022-12-03T10:42:26.023Z,20.23
2022-12-03T10:45:10.275Z,22.45
2022-12-03T10:47:38.343Z,22.90
2022-12-03T10:50:17.633Z,25.67
2022-12-03T10:52:46.323Z,25.00
2022-12-03T10:55:15.760Z,25.77
2022-12-03T10:57:45.938Z,25.35
2022-12-03T11:00:18.097Z,27.63
2022-12-03T11:02:50.415Z,31.63
2022-12-03T11:05:28.034Z,29.48
2022-12-03T11:07:57.324Z,25.45
2022-12-03T11:10:26.858Z,29.88
2022-12-03T11:13:45.368Z,30.42
2022-12-03T11:16:14.486Z,29.50
2022-12-03T11:19:03.082Z,25.75
2022-12-03T11:21:32.688Z,24.17
2022-12-03T11:24:22.018Z,27.17
2022-12-03T11:27:18.785Z,25.95
2022-12-03T11:30:05.081Z,23.75
2022-12-03T11:33:01.358Z,24.63
2022-12-03T11:35:36.752Z,28.88
2022-12-03T11:38:38.012Z,24.45
2022-12-03T11:41:11.636Z,20.58
2022-12-03T11:43:59.497Z,22.08
2022-12-03T11:46:31.187Z,17.60
2022-12-03T11:49:00.922Z,23.98
2022-12-03T11:51:31.207Z,21.30
2022-12-03T11:54:00.828Z,22.45
2022-12-03T11:56:31.557Z,22.33
2022-12-03T11:59:01.078Z,24.10
2022-12-03T12:01:38.837Z,25.02
2022-12-03T12:04:08.192Z,21.08
2022-12-03T12:06:42.556Z,20.45
2022-12-03T12:09:11.418Z,20.52
2022-12-03T12:11:41.752Z,18.90
2022-12-03T12:14:12.071Z,21.98
2022-12-03T12:16:51.228Z,22.15
2022-12-03T12:19:32.626Z,20.00
2022-12-03T12:22:28.921Z,20.75
2022-12-03T12:24:58.351Z,19.90
2022-12-03T12:27:37.578Z,20.60
2022-12-03T12:30:10.043Z,21.00
2022-12-03T12:32:44.971Z,21.17
2022-12-03T12:35:20.397Z,25.88
2022-12-03T12:37:58.165Z,20.42
2022-12-03T12:40:29.956Z,20.60
2022-12-03T12:43:08.249Z,20.88
2022-12-03T12:45:42.375Z,20.55
2022-12-03T12:48:22.816Z,19.10
2022-12-03T12:50:55.418Z,21.98
2022-12-03T12:53:25.352Z,18.55
2022-12-03T12:55:57.379Z,20.23
2022-12-03T12:58:27.792Z,22.13
2022-12-03T13:00:58.987Z,18.92
2022-12-03T13:03:30.450Z,20.75
2022-12-03T13:05:58.703Z,23.35
2022-12-03T13:08:29.126Z,21.73
2022-12-03T13:10:58.634Z,21.67
2022-12-03T13:13:32.389Z,22.42
2022-12-03T13:16:03.744Z,21.48
2022-12-03T13:18:36.005Z,23.35
2022-12-03T13:21:14.981Z,20.65
2022-12-03T13:23:43.024Z,22.67
2022-12-03T13:26:34.084Z,21.33
2022-12-03T13:29:14.488Z,19.52
2022-12-03T13:31:46.175Z,26.45
2022-12-03T13:34:19.648Z,19.77
2022-12-03T13:36:53.516Z,18.52
2022-12-03T13:39:28.230Z,19.85
2022-12-03T13:42:14.369Z,20.30
2022-12-03T13:44:46.670Z,23.80
2022-12-03T13:47:16.886Z,19.83
2022-12-03T13:49:50.875Z,21.25
2022-12-03T13:52:22.300Z,20.92
2022-12-03T13:54:52.710Z,19.45
2022-12-03T13:57:20.718Z,20.52
2022-12-03T13:59:50.439Z,20.48
2022-12-03T14:02:18.588Z,20.20
2022-12-03T14:04:46.659Z,20.75
2022-12-03T14:07:14.653Z,27.55
2022-12-03T14:09:42.620Z,20.70
2022-12-03T14:12:33.556Z,26.98
2022-12-03T14:15:04.335Z,22.42
2022-12-03T14:17:32.773Z,23.98
2022-12-03T14:20:01.712Z,22.55
2022-12-03T14:22:29.810Z,25.15
2022-12-03T14:24:58.807Z,23.10
2022-12-03T14:27:27.508Z,20.25
2022-12-03T14:29:55.692Z,18.02
2022-12-03T14:32:25.337Z,21.00
2022-12-03T14:34:53.628Z,25.35
2022-12-03T14:37:21.641Z,19.55
2022-12-03T14:39:49.634Z,20.20
2022-12-03T14:42:18.312Z,18.40
2022-12-03T14:44:47.651Z,20.50
2022-12-03T14:47:17.730Z,16.52
2022-12-03T14:49:47.800Z,21.95
2022-12-03T14:52:15.809Z,20.88
2022-12-03T14:54:44.131Z,19.73
2022-12-03T14:57:13.968Z,19.70
2022-12-03T14:59:42.324Z,22.02
2022-12-03T15:02:10.869Z,19.02
2022-12-03T15:04:39.356Z,20.33
2022-12-03T15:07:09.151Z,20.70
2022-12-03T15:09:37.206Z,22.48
2022-12-03T15:12:05.736Z,19.58
2022-12-03T15:14:33.727Z,19.75
2022-12-03T15:17:01.941Z,21.70
2022-12-03T15:19:30.049Z,23.60
2022-12-03T15:21:58.264Z,21.50
2022-12-03T15:24:27.634Z,18.67
2022-12-03T15:26:56.034Z,21.15
2022-12-03T15:29:24.613Z,23.55
2022-12-03T15:31:52.608Z,26.70
2022-12-03T15:34:22.849Z,25.30
2022-12-03T15:36:51.476Z,18.80
2022-12-03T15:39:19.478Z,19.75
2022-12-03T15:41:49.435Z,21.55
2022-12-03T15:44:17.454Z,21.33
2022-12-03T15:46:45.622Z,24.33
2022-12-03T15:49:13.663Z,21.27
2022-12-03T15:51:41.657Z,20.92
2022-12-03T15:54:11.740Z,24.98
2022-12-03T15:56:39.720Z,24.90
2022-12-03T15:59:09.067Z,21.10
2022-12-03T16:01:37.211Z,19.42
2022-12-03T16:04:05.519Z,22.25
2022-12-03T16:06:33.526Z,21.15
2022-12-03T16:09:01.523Z,24.55
2022-12-03T16:11:29.505Z,21.50
2022-12-03T16:13:57.483Z,22.80
2022-12-03T16:16:26.930Z,22.08
2022-12-03T16:18:55.066Z,23.40
2022-12-03T16:21:26.695Z,22.95
2022-12-03T16:23:55.551Z,22.67
2022-12-03T16:26:23.841Z,19.88
2022-12-03T16:28:51.819Z,22.65
2022-12-03T16:31:20.068Z,24.23
2022-12-03T16:33:49.702Z,23.65
2022-12-03T16:36:17.709Z,23.80
2022-12-03T16:38:45.682Z,24.45
2022-12-03T16:41:13.681Z,21.65
2022-12-03T16:43:41.703Z,21.95
2022-12-03T16:46:25.634Z,22.75
2022-12-03T16:48:56.431Z,23.85
2022-12-03T16:51:24.834Z,23.63
2022-12-03T16:53:53.136Z,22.60
2022-12-03T16:56:21.868Z,23.15
2022-12-03T16:58:49.855Z,22.77
2022-12-03T17:01:18.401Z,23.70
2022-12-03T17:03:46.415Z,25.02
2022-12-03T17:06:15.792Z,26.23
2022-12-03T17:08:48.978Z,24.63
2022-12-03T17:11:17.644Z,24.77
2022-12-03T17:13:45.621Z,23.00
2022-12-03T17:16:13.717Z,22.25
2022-12-03T17:18:41.779Z,21.05
2022-12-03T17:21:09.790Z,23.48
2022-12-03T17:23:39.133Z,23.17
2022-12-03T17:26:07.120Z,22.73
2022-12-03T17:28:35.646Z,21.45
2022-12-03T17:31:03.709Z,25.92
2022-12-03T17:33:31.695Z,21.77
2022-12-03T17:35:59.682Z,22.38
2022-12-03T17:38:27.833Z,25.08
2022-12-03T17:40:57.188Z,23.08
2022-12-03T17:43:25.245Z,23.15
2022-12-03T17:45:53.262Z,24.50
2022-12-03T17:48:21.277Z,20.00
2022-12-03T17:50:50.203Z,20.88
2022-12-03T17:53:18.192Z,20.48
2022-12-03T17:55:46.983Z,20.95
2022-12-03T17:58:16.338Z,20.05
2022-12-03T18:00:44.491Z,19.45
2022-12-03T18:03:12.522Z,22.10
2022-12-03T18:05:40.536Z,22.85
2022-12-03T18:08:08.693Z,27.83
2022-12-03T18:10:36.833Z,22.02
2022-12-03T18:13:05.002Z,23.77
2022-12-03T18:15:34.380Z,22.55
2022-12-03T18:18:02.343Z,21.02
2022-12-03T18:20:30.640Z,21.67
2022-12-03T18:22:59.615Z,22.33
2022-12-03T18:25:28.236Z,24.08
2022-12-03T18:27:56.208Z,23.58
2022-12-03T18:30:24.210Z,28.30
2022-12-03T18:32:53.554Z,21.48
2022-12-03T18:35:21.639Z,22.45
2022-12-03T18:37:50.984Z,21.23
2022-12-03T18:40:20.873Z,23.00
2022-12-03T18:42:48.918Z,23.27
2022-12-03T18:45:19.582Z,23.77
2022-12-03T18:47:47.738Z,21.13
2022-12-03T18:50:17.286Z,21.88
2022-12-03T18:52:45.360Z,24.33
2022-12-03T18:55:18.650Z,21.50
2022-12-03T18:57:46.801Z,21.15
2022-12-03T19:00:17.078Z,25.48
2022-12-03T19:03:02.284Z,25.35
2022-12-03T19:05:32.549Z,21.98
2022-12-03T19:08:00.817Z,24.73
2022-12-03T19:10:29.051Z,25.45
2022-12-03T19:12:57.025Z,23.60
2022-12-03T19:15:25.046Z,22.67
2022-12-03T19:17:53.039Z,24.33
2022-12-03T19:20:21.069Z,23.02
2022-12-03T19:22:50.409Z,23.05
2022-12-03T19:25:18.605Z,21.60
2022-12-03T19:27:46.622Z,20.05
2022-12-03T19:30:15.109Z,22.27
2022-12-03T19:32:43.173Z,21.40
2022-12-03T19:35:11.443Z,19.25
2022-12-03T19:37:39.718Z,22.70
2022-12-03T19:40:11.257Z,20.83
2022-12-03T19:42:39.565Z,24.88
2022-12-03T19:45:08.700Z,25.60
2022-12-03T19:47:36.808Z,21.27
2022-12-03T19:50:05.782Z,19.55
2022-12-03T19:52:37.092Z,19.60
2022-12-03T19:55:06.144Z,22.75
2022-12-03T19:57:35.510Z,21.00
2022-12-03T20:00:03.835Z,21.00
2022-12-03T20:02:32.003Z,19.60
2022-12-03T20:05:00.104Z,21.70
2022-12-03T20:07:28.968Z,22.73
2022-12-03T20:09:57.589Z,26.95
2022-12-03T20:12:25.808Z,27.58
2022-12-03T20:14:55.192Z,25.42
2022-12-03T20:17:23.139Z,27.90
2022-12-03T20:19:51.403Z,22.05
2022-12-03T20:22:19.529Z,22.08
2022-12-03T20:24:47.514Z,19.75
2022-12-03T20:27:18.330Z,20.92
2022-12-03T20:29:50.571Z,24.00
2022-12-03T20:32:19.980Z,21.08
2022-12-03T20:34:49.554Z,22.27
2022-12-03T20:37:17.981Z,25.30
2022-12-03T20:39:46.043Z,21.65
2022-12-03T20:42:14.001Z,26.35
2022-12-03T20:44:41.948Z,34.20
2022-12-03T20:47:10.057Z,39.17
2022-12-03T20:49:40.243Z,36.65
2022-12-03T20:52:08.247Z,26.52
2022-12-03T20:54:36.222Z,29.92
2022-12-03T20:57:04.498Z,28.15
2022-12-03T20:59:32.820Z,33.35
2022-12-03T21:02:00.870Z,27.20
2022-12-03T21:04:28.974Z,34.85
2022-12-03T21:06:58.301Z,27.10
2022-12-03T21:09:26.283Z,26.38
2022-12-03T21:11:54.237Z,23.25
2022-12-03T21:14:22.256Z,25.83
2022-12-03T21:17:08.007Z,23.73
2022-12-03T21:19:37.163Z,24.60
2022-12-03T21:22:07.195Z,24.02
2022-12-03T21:24:35.484Z,29.73
2022-12-03T21:27:03.823Z,23.60
2022-12-03T21:29:31.822Z,24.88
2022-12-03T21:31:59.821Z,25.38
2022-12-03T21:34:34.153Z,23.35
2022-12-03T21:37:04.320Z,29.58
2022-12-03T21:39:33.764Z,28.67
2022-12-03T21:42:22.198Z,31.35
2022-12-03T21:45:06.641Z,28.67
2022-12-03T21:47:37.297Z,30.98
2022-12-03T21:50:07.172Z,31.42
2022-12-03T21:52:35.463Z,34.35
2022-12-03T21:55:04.993Z,32.42
2022-12-03T21:57:33.063Z,32.25
2022-12-03T22:00:01.056Z,29.98
2022-12-03T22:02:29.148Z,31.25
2022-12-03T22:04:58.137Z,30.58
2022-12-03T22:07:26.218Z,34.75
2022-12-03T22:09:54.413Z,31.33
2022-12-03T22:12:23.902Z,30.70
2022-12-03T22:15:18.204Z,32.35
2022-12-03T22:17:47.203Z,28.70
2022-12-03T22:20:15.723Z,25.77
2022-12-03T22:22:43.703Z,26.67
2022-12-03T22:25:11.730Z,28.42
2022-12-03T22:27:41.031Z,24.50
2022-12-03T22:30:10.079Z,25.65
2022-12-03T22:32:38.086Z,25.75
2022-12-03T22:35:06.772Z,25.23
2022-12-03T22:37:34.750Z,30.00
2022-12-03T22:40:02.791Z,25.48
2022-12-03T22:42:30.792Z,23.83
2022-12-03T22:45:12.654Z,25.92
2022-12-03T22:47:40.635Z,26.98
2022-12-03T22:50:09.784Z,25.58
2022-12-03T22:52:37.784Z,29.17
2022-12-03T22:55:06.407Z,26.67
2022-12-03T22:57:34.394Z,28.25
2022-12-03T23:00:02.377Z,28.42
2022-12-03T23:02:31.739Z,29.33
2022-12-03T23:05:00.080Z,28.90
2022-12-03T23:07:28.179Z,32.72
2022-12-03T23:09:56.385Z,28.77
2022-12-03T23:12:24.605Z,28.58
2022-12-03T23:14:55.114Z,28.13
2022-12-03T23:17:23.113Z,28.85
2022-12-03T23:19:52.999Z,31.60
2022-12-03T23:22:21.373Z,29.90
2022-12-03T23:24:49.374Z,26.95
2022-12-03T23:27:17.333Z,28.40
2022-12-03T23:29:45.330Z,29.88
2022-12-03T23:32:13.396Z,25.83
2022-12-03T23:34:41.483Z,26.88
2022-12-03T23:37:11.103Z,26.38
2022-12-03T23:39:39.265Z,28.20
2022-12-03T23:42:07.296Z,27.08
2022-12-03T23:44:35.310Z,26.45
2022-12-03T23:47:03.448Z,27.67
2022-12-03T23:49:31.520Z,27.35
2022-12-03T23:51:59.492Z,31.85
2022-12-03T23:54:28.912Z,25.25
2022-12-03T23:56:56.899Z,26.20
2022-12-03T23:59:25.036Z,31.15
